sensor_id;sensor_type;location;lat;lon;timestamp;pressure;altitude;pressure_sealevel;temperature;humidity
61740;BME280;47645;45.288;12.038;2023-08-06T00:04:15;1004.5245510551053;;;19.9072265625;100
61740;BME280;47645;45.288;12.038;2023-08-06T00:14:18;1004.3775132191613;;;19.9072265625;100
61740;BME280;47645;45.288;12.038;2023-08-06T00:24:18;1004.3301880226296;;;19.9939453125;100
61740;BME280;47645;45.288;12.038;2023-08-06T00:34:19;1004.2027185311308;;;20.0705078125;99.44136996383664
61740;BME280;47645;45.288;12.038;2023-08-06T00:44:20;1004.1849842437275;;;20.065234375;99.27226354116787
61740;BME280;47645;45.288;12.038;2023-08-06T00:54:21;1004.132832165016;;;20.0091796875;99.08645124603859
61740;BME280;47645;45.288;12.038;2023-08-06T01:04:23;1004.1292855135648;;;20.0296875;99.4704118277823
61740;BME280;47645;45.288;12.038;2023-08-06T01:14:28;1004.0727092181874;;;20.034765625;99.38093488537295
61740;BME280;47645;45.288;12.038;2023-08-06T01:24:25;1004.0900382554564;;;20.06015625;99.11442305336935
61740;BME280;47645;45.288;12.038;2023-08-06T01:34:28;1004.0083231726456;;;20.0705078125;99.02422509608344
61740;BME280;47645;45.288;12.038;2023-08-06T01:44:27;1004.0647599505376;;;20.0091796875;99.06819186148013
61740;BME280;47645;45.288;12.038;2023-08-06T01:54:29;1004.0436142493106;;;20.0041015625;99.05691839398584
61740;BME280;47645;45.288;12.038;2023-08-06T02:04:29;1004.0505737123088;;;20.0142578125;99.29996650067096
61740;BME280;47645;45.288;12.038;2023-08-06T02:14:30;1003.8655999228904;;;19.85625;100
61740;BME280;47645;45.288;12.038;2023-08-06T02:24:32;1003.6134135970414;;;20.034765625;99.42310311827046
61740;BME280;47645;45.288;12.038;2023-08-06T02:34:33;1003.6947720091151;;;19.525;100
61740;BME280;47645;45.288;12.038;2023-08-06T02:44:34;1003.5454372796611;;;19.8818359375;100
61740;BME280;47645;45.288;12.038;2023-08-06T02:54:35;1003.6484570133939;;;19.6982421875;100
61740;BME280;47645;45.288;12.038;2023-08-06T03:04:36;1003.5629980842986;;;19.8716796875;100
61740;BME280;47645;45.288;12.038;2023-08-06T03:14:38;1003.8387284097847;;;19.4486328125;100
61740;BME280;47645;45.288;12.038;2023-08-06T03:24:39;1003.531493455735;;;19.84609375;100
61740;BME280;47645;45.288;12.038;2023-08-06T03:34:40;1003.6059504957863;;;19.84609375;100
61740;BME280;47645;45.288;12.038;2023-08-06T03:44:41;1003.3281707887712;;;19.9787109375;100
61740;BME280;47645;45.288;12.038;2023-08-06T03:54:43;1003.1182829014089;;;19.4892578125;100
61740;BME280;47645;45.288;12.038;2023-08-06T04:04:44;1003.3453524872659;;;18.9236328125;100
61740;BME280;47645;45.288;12.038;2023-08-06T04:14:45;1003.3461417704347;;;19.4689453125;100
61740;BME280;47645;45.288;12.038;2023-08-06T04:24:46;1003.3215160787934;;;19.6982421875;100
61740;BME280;47645;45.288;12.038;2023-08-06T04:34:48;1003.3329134519078;;;19.82578125;100
61740;BME280;47645;45.288;12.038;2023-08-06T04:44:48;1003.2564196810106;;;19.754296875;100
61740;BME280;47645;45.288;12.038;2023-08-06T04:54:49;1002.9800999877941;;;19.621875;100
61740;BME280;47645;45.288;12.038;2023-08-06T05:04:50;1003.1730014274368;;;19.6421875;100
61740;BME280;47645;45.288;12.038;2023-08-06T05:14:52;1003.5056267345985;;;19.96328125;100
61740;BME280;47645;45.288;12.038;2023-08-06T05:24:53;1003.5599274032911;;;20.065234375;100
61740;BME280;47645;45.288;12.038;2023-08-06T05:34:54;1003.4625483002202;;;20.23359375;100
61740;BME280;47645;45.288;12.038;2023-08-06T05:44:55;1003.3412738088377;;;19.8869140625;100
61740;BME280;47645;45.288;12.038;2023-08-06T05:54:56;1003.4519050905428;;;20.23359375;100
61740;BME280;47645;45.288;12.038;2023-08-06T06:04:58;1003.419864273676;;;20.58515625;100
61740;BME280;47645;45.288;12.038;2023-08-06T06:15:01;1003.4118516812164;;;20.773828125;99.95437265755339
61740;BME280;47645;45.288;12.038;2023-08-06T06:25:00;1003.4315992903965;;;20.8451171875;100
61740;BME280;47645;45.288;12.038;2023-08-06T06:35:01;1003.3449915395867;;;21.1560546875;100
61740;BME280;47645;45.288;12.038;2023-08-06T06:45:03;1003.433777328263;;;21.28359375;97.29768197813182
61740;BME280;47645;45.288;12.038;2023-08-06T06:55:04;1003.4312967030495;;;21.71171875;100
61740;BME280;47645;45.288;12.038;2023-08-06T07:00:05;1003.4156685207953;;;21.920703125;100
61740;BME280;47645;45.288;12.038;2023-08-06T07:10:07;1003.434532551708;;;22.2673828125;92.35081127087136
61740;BME280;47645;45.288;12.038;2023-08-06T07:20:07;1003.5814252953518;;;22.5884765625;92.83364824614281
61740;BME280;47645;45.288;12.038;2023-08-06T07:30:08;1003.6235826828405;;;23.05234375;85.03007195555374
61740;BME280;47645;45.288;12.038;2023-08-06T07:40:10;1003.7900935865488;;;23.353125;74.09187313495696
61740;BME280;47645;45.288;12.038;2023-08-06T07:50:10;1003.8618106069532;;;23.4142578125;71.09019085861301
61740;BME280;47645;45.288;12.038;2023-08-06T08:00:12;1003.9384235914044;;;23.57734375;77.77076797109747
61740;BME280;47645;45.288;12.038;2023-08-06T08:10:13;1003.9595083567488;;;23.7201171875;79.55556977143108
61740;BME280;47645;45.288;12.038;2023-08-06T08:20:15;1003.9013642803868;;;24.0412109375;76.27434799041721
61740;BME280;47645;45.288;12.038;2023-08-06T08:30:16;1003.8220374924597;;;24.214453125;76.4947979437971
61740;BME280;47645;45.288;12.038;2023-08-06T08:40:17;1003.7901464408527;;;24.4541015625;73.10154519850464
61740;BME280;47645;45.288;12.038;2023-08-06T08:50:19;1003.7500083956132;;;24.37265625;76.82754781131091
61740;BME280;47645;45.288;12.038;2023-08-06T09:00:20;1003.7579095421735;;;24.58671875;74.71174862982458
61740;BME280;47645;45.288;12.038;2023-08-06T09:10:26;1003.8417252367412;;;24.7396484375;69.54892572577698
61740;BME280;47645;45.288;12.038;2023-08-06T09:20:22;1003.8568142533899;;;25.03515625;74.40153952597439
61740;BME280;47645;45.288;12.038;2023-08-06T09:30:33;1003.8801342017607;;;25.341015625;74.7926154355458
61740;BME280;47645;45.288;12.038;2023-08-06T09:40:27;1004.0413544686758;;;25.85078125;74.11725901394226
61740;BME280;47645;45.288;12.038;2023-08-06T09:50:29;1004.035150308054;;;26.223046875;66.48191806342652
61740;BME280;47645;45.288;12.038;2023-08-06T10:00:29;1004.1074988177365;;;26.8703125;69.15947541794581
61740;BME280;47645;45.288;12.038;2023-08-06T10:10:29;1004.0000556969495;;;27.0232421875;67.0597019621912
61740;BME280;47645;45.288;12.038;2023-08-06T10:20:33;1003.93311445027;;;28.1548828125;68.0920816789741
61740;BME280;47645;45.288;12.038;2023-08-06T10:30:34;1003.9349245313223;;;28.6341796875;66.8791973835911
61740;BME280;47645;45.288;12.038;2023-08-06T10:40:34;1003.9357844730584;;;29.4751953125;63.261993678455056
61740;BME280;47645;45.288;12.038;2023-08-06T10:50:36;1003.9559945012955;;;30.137890625;53.40622291463558
61740;BME280;47645;45.288;12.038;2023-08-06T11:00:38;1003.9311314710326;;;29.91875;59.7041127540726
61740;BME280;47645;45.288;12.038;2023-08-06T11:10:39;1003.8897671259122;;;29.8576171875;60.07502331129345
61740;BME280;47645;45.288;12.038;2023-08-06T11:20:41;1003.7995413696755;;;30.5560546875;60.652394424685866
61740;BME280;47645;45.288;12.038;2023-08-06T11:30:42;1003.8602646975628;;;31.244140625;61.08956522808585
61740;BME280;47645;45.288;12.038;2023-08-06T11:40:44;1003.8279791990815;;;31.050390625;57.070450105876944
61740;BME280;47645;45.288;12.038;2023-08-06T11:50:46;1003.7161632392177;;;32.4625;55.12729015900793
61740;BME280;47645;45.288;12.038;2023-08-06T12:00:48;1003.702238943198;;;32.2841796875;55.26893007897683
61740;BME280;47645;45.288;12.038;2023-08-06T12:10:51;1003.6815734513257;;;32.661328125;49.21762348818846
61740;BME280;47645;45.288;12.038;2023-08-06T12:20:52;1003.6745567676593;;;32.5033203125;53.68945804507645
61740;BME280;47645;45.288;12.038;2023-08-06T12:30:56;1003.560605774131;;;31.845703125;54.45871955944018
61740;BME280;47645;45.288;12.038;2023-08-06T12:40:55;1003.6346958524166;;;30.6884765625;57.02304437649199
61740;BME280;47645;45.288;12.038;2023-08-06T12:50:56;1003.816234579041;;;31.73359375;57.6913911250054
61740;BME280;47645;45.288;12.038;2023-08-06T13:00:59;1003.87329171018;;;31.932421875;59.33838512061081
61740;BME280;47645;45.288;12.038;2023-08-06T13:11:00;1003.6615524722483;;;31.555078125;62.27317743826771
61740;BME280;47645;45.288;12.038;2023-08-06T13:21:02;1003.4619267357025;;;31.1064453125;63.520184626731584
61740;BME280;47645;45.288;12.038;2023-08-06T13:31:03;1003.4456561911412;;;31.8814453125;62.287741380929674
61740;BME280;47645;45.288;12.038;2023-08-06T13:41:06;1003.4553003759488;;;32.16171875;61.18152989165338
61740;BME280;47645;45.288;12.038;2023-08-06T13:51:08;1003.4260375497553;;;33.2119140625;55.35460894155663
61740;BME280;47645;45.288;12.038;2023-08-06T14:01:10;1003.596716540512;;;34.027734375;54.46438517959735
61740;BME280;47645;45.288;12.038;2023-08-06T14:11:11;1003.6758277416433;;;34.1142578125;53.27019795479434
61740;BME280;47645;45.288;12.038;2023-08-06T14:21:12;1003.663559879191;;;33.971484375;52.971913718856335
61740;BME280;47645;45.288;12.038;2023-08-06T14:31:14;1003.6004442693015;;;34.262109375;49.87390657930271
61740;BME280;47645;45.288;12.038;2023-08-06T14:41:16;1003.646547721914;;;33.5126953125;49.46677647831417
61740;BME280;47645;45.288;12.038;2023-08-06T14:51:19;1003.6712235576997;;;33.4158203125;47.92055885495738
61740;BME280;47645;45.288;12.038;2023-08-06T15:01:19;1003.7749769163078;;;33.2732421875;55.58576928004436
61740;BME280;47645;45.288;12.038;2023-08-06T15:16:22;1003.9258120253778;;;32.5697265625;36.32393709209275
61740;BME280;47645;45.288;12.038;2023-08-06T15:21:23;1003.9508959459952;;;32.844921875;38.02199651918999
61740;BME280;47645;45.288;12.038;2023-08-06T15:31:35;1003.9292667809626;;;33.04375;42.43756979545472
61740;BME280;47645;45.288;12.038;2023-08-06T15:41:26;1004.0194259630038;;;32.35546875;31.825533865523994
61740;BME280;47645;45.288;12.038;2023-08-06T15:51:28;1004.1865095920165;;;32.0087890625;37.28663856725092
61740;BME280;47645;45.288;12.038;2023-08-06T16:01:30;1004.3722512649124;;;32.1771484375;32.609322572060364
61740;BME280;47645;45.288;12.038;2023-08-06T16:11:32;1004.5577308723307;;;32.727734375;54.31845470683065
61740;BME280;47645;45.288;12.038;2023-08-06T16:21:34;1005.149386153831;;;28.787109375;58.21564161466422
61740;BME280;47645;45.288;12.038;2023-08-06T16:31:36;1005.0225704401897;;;28.593359375;66.52903621615718
61740;BME280;47645;45.288;12.038;2023-08-06T16:41:39;1005.0392995769574;;;27.57890625;64.24818688453132
61740;BME280;47645;45.288;12.038;2023-08-06T16:51:40;1005.2287344347719;;;27.5431640625;72.74461762459484
61740;BME280;47645;45.288;12.038;2023-08-06T17:01:41;1005.3357857445004;;;27.4921875;63.18258100166114
61740;BME280;47645;45.288;12.038;2023-08-06T17:11:43;1005.2939626287666;;;27.3291015625;64.9417700566729
61740;BME280;47645;45.288;12.038;2023-08-06T17:21:44;1005.2738918140631;;;27.7625;73.19346337105088
61740;BME280;47645;45.288;12.038;2023-08-06T17:31:46;1005.347342426608;;;27.6146484375;73.35635391248007
61740;BME280;47645;45.288;12.038;2023-08-06T17:41:47;1005.4027162603155;;;27.273046875;78.53102130115258
61740;BME280;47645;45.288;12.038;2023-08-06T17:51:49;1005.4363124540744;;;27.084375;78.47506727399202
61740;BME280;47645;45.288;12.038;2023-08-06T18:01:50;1005.5754035629344;;;26.8294921875;80.50456949965711
61740;BME280;47645;45.288;12.038;2023-08-06T18:11:52;1005.9124460132947;;;26.43203125;82.13049065907525
61740;BME280;47645;45.288;12.038;2023-08-06T18:21:53;1006.3142864424849;;;25.8099609375;81.02267471489117
61740;BME280;47645;45.288;12.038;2023-08-06T18:31:55;1006.5545112634826;;;23.9138671875;87.77522732302045
61740;BME280;47645;45.288;12.038;2023-08-06T18:41:56;1006.6395583693941;;;24.398046875;91.64637232929832
61740;BME280;47645;45.288;12.038;2023-08-06T18:51:58;1006.792981217028;;;23.8119140625;90.76487458117778
61740;BME280;47645;45.288;12.038;2023-08-06T19:01:59;1006.756406171263;;;23.3123046875;90.59566652468209
61740;BME280;47645;45.288;12.038;2023-08-06T19:12:01;1006.8649300194788;;;23.86796875;90.32651770351185
61740;BME280;47645;45.288;12.038;2023-08-06T19:22:02;1007.0837750228316;;;23.67421875;89.9522643055283
61740;BME280;47645;45.288;12.038;2023-08-06T19:32:05;1007.21109980782;;;23.353125;87.07268982959725
61740;BME280;47645;45.288;12.038;2023-08-06T19:42:11;1007.2832258910671;;;23.1900390625;87.59644614877027
61740;BME280;47645;45.288;12.038;2023-08-06T19:52:11;1007.3046915089517;;;23.3123046875;91.00895368960506
61740;BME280;47645;45.288;12.038;2023-08-06T20:02:11;1007.4508176181962;;;22.211328125;90.85735811457063
61740;BME280;47645;45.288;12.038;2023-08-06T20:12:10;1007.6500704536219;;;22.0787109375;88.15139713732412
61740;BME280;47645;45.288;12.038;2023-08-06T20:22:10;1007.92376463032;;;21.3244140625;82.70519839708122
61740;BME280;47645;45.288;12.038;2023-08-06T20:32:13;1007.8985203411546;;;22.6138671875;92.85875200825369
61740;BME280;47645;45.288;12.038;2023-08-06T20:42:13;1007.9169288234215;;;21.4365234375;81.63031413978584
61740;BME280;47645;45.288;12.038;2023-08-06T20:52:15;1007.8464268059122;;;21.4568359375;80.58691941284539
61740;BME280;47645;45.288;12.038;2023-08-06T21:02:16;1007.9171197592175;;;20.248828125;89.36787718598987
61740;BME280;47645;45.288;12.038;2023-08-06T21:12:18;1007.8619874417492;;;21.1154296875;96.43988364938211
61740;BME280;47645;45.288;12.038;2023-08-06T21:22:19;1007.7949866753598;;;21.3244140625;93.71975136931431
61740;BME280;47645;45.288;12.038;2023-08-06T21:32:21;1008.2442550079513;;;20.23359375;88.79540671067834
61740;BME280;47645;45.288;12.038;2023-08-06T21:42:21;1008.1790710244426;;;18.9287109375;96.61681481910526
61740;BME280;47645;45.288;12.038;2023-08-06T21:52:23;1008.2451853868221;;;19.0611328125;100
61740;BME280;47645;45.288;12.038;2023-08-06T22:02:25;1008.424934149733;;;19.0509765625;97.12214641607174
61740;BME280;47645;45.288;12.038;2023-08-06T22:12:27;1008.5044396217952;;;19.948046875;99.0438382564331
61740;BME280;47645;45.288;12.038;2023-08-06T22:22:27;1008.552071188125;;;19.5708984375;98.36295561900334
61740;BME280;47645;45.288;12.038;2023-08-06T22:32:30;1008.5260363166078;;;19.519921875;92.96728119696404
61740;BME280;47645;45.288;12.038;2023-08-06T22:42:29;1008.5259872680938;;;19.1529296875;94.18441369302373
61740;BME280;47645;45.288;12.038;2023-08-06T22:52:30;1008.4610489369943;;;19.0;94.92154400160379
61740;BME280;47645;45.288;12.038;2023-08-06T23:02:32;1008.568886132363;;;19.5861328125;90.15820351164608
61740;BME280;47645;45.288;12.038;2023-08-06T23:12:33;1008.5089092076529;;;18.6482421875;93.0436647773278
61740;BME280;47645;45.288;12.038;2023-08-06T23:22:34;1008.2353213622774;;;19.3873046875;95.37103369863146
61740;BME280;47645;45.288;12.038;2023-08-06T23:32:35;1008.4690123155959;;;18.79609375;91.88808842973934
61740;BME280;47645;45.288;12.038;2023-08-06T23:42:37;1008.3978826156822;;;20.0806640625;96.16608237502537
61740;BME280;47645;45.288;12.038;2023-08-06T23:52:38;1008.3229625075282;;;19.402734375;95.19762693020026
